sensor_id;sensor_type;location;lat;lon;timestamp;temperature;humidity
70826;SHT31;58446;41.490;22.098;2024-01-30T00:01:54;3.94;58.44
70826;SHT31;58446;41.490;22.098;2024-01-30T00:04:20;3.58;59.17
70826;SHT31;58446;41.490;22.098;2024-01-30T00:06:45;3.40;58.92
70826;SHT31;58446;41.490;22.098;2024-01-30T00:09:11;3.38;58.46
70826;SHT31;58446;41.490;22.098;2024-01-30T00:11:37;3.30;58.54
70826;SHT31;58446;41.490;22.098;2024-01-30T00:14:04;3.28;58.41
70826;SHT31;58446;41.490;22.098;2024-01-30T00:16:30;3.53;58.96
70826;SHT31;58446;41.490;22.098;2024-01-30T00:18:56;3.58;57.94
70826;SHT31;58446;41.490;22.098;2024-01-30T00:21:21;3.48;56.73
70826;SHT31;58446;41.490;22.098;2024-01-30T00:23:47;3.40;56.07
70826;SHT31;58446;41.490;22.098;2024-01-30T00:26:13;3.33;56.90
70826;SHT31;58446;41.490;22.098;2024-01-30T00:28:41;3.30;56.71
70826;SHT31;58446;41.490;22.098;2024-01-30T00:31:08;3.33;56.68
70826;SHT31;58446;41.490;22.098;2024-01-30T00:33:40;3.91;61.31
70826;SHT31;58446;41.490;22.098;2024-01-30T00:36:08;4.22;60.72
70826;SHT31;58446;41.490;22.098;2024-01-30T00:38:35;4.22;58.11
70826;SHT31;58446;41.490;22.098;2024-01-30T00:41:01;4.56;59.17
70826;SHT31;58446;41.490;22.098;2024-01-30T00:43:29;4.76;58.86
70826;SHT31;58446;41.490;22.098;2024-01-30T00:45:56;4.52;57.58
70826;SHT31;58446;41.490;22.098;2024-01-30T00:48:23;4.02;58.52
70826;SHT31;58446;41.490;22.098;2024-01-30T00:50:49;4.08;60.51
70826;SHT31;58446;41.490;22.098;2024-01-30T00:53:15;4.39;60.13
70826;SHT31;58446;41.490;22.098;2024-01-30T00:55:41;4.29;59.14
70826;SHT31;58446;41.490;22.098;2024-01-30T00:58:07;4.28;59.80
70826;SHT31;58446;41.490;22.098;2024-01-30T01:00:33;4.39;59.55
70826;SHT31;58446;41.490;22.098;2024-01-30T01:02:59;4.42;59.20
70826;SHT31;58446;41.490;22.098;2024-01-30T01:05:25;4.44;59.64
70826;SHT31;58446;41.490;22.098;2024-01-30T01:07:51;4.62;59.38
70826;SHT31;58446;41.490;22.098;2024-01-30T01:10:17;4.75;59.08
70826;SHT31;58446;41.490;22.098;2024-01-30T01:12:47;4.82;58.86
70826;SHT31;58446;41.490;22.098;2024-01-30T01:15:13;4.68;58.71
70826;SHT31;58446;41.490;22.098;2024-01-30T01:17:39;4.69;58.57
70826;SHT31;58446;41.490;22.098;2024-01-30T01:20:06;4.80;58.68
70826;SHT31;58446;41.490;22.098;2024-01-30T01:22:34;4.80;58.46
70826;SHT31;58446;41.490;22.098;2024-01-30T01:25:00;4.79;58.79
70826;SHT31;58446;41.490;22.098;2024-01-30T01:27:26;4.69;58.95
70826;SHT31;58446;41.490;22.098;2024-01-30T01:29:52;4.65;58.72
70826;SHT31;58446;41.490;22.098;2024-01-30T01:32:19;4.72;58.42
70826;SHT31;58446;41.490;22.098;2024-01-30T01:34:44;4.73;58.19
70826;SHT31;58446;41.490;22.098;2024-01-30T01:37:10;4.70;58.16
70826;SHT31;58446;41.490;22.098;2024-01-30T01:39:36;4.63;58.22
70826;SHT31;58446;41.490;22.098;2024-01-30T01:42:02;4.65;58.32
70826;SHT31;58446;41.490;22.098;2024-01-30T01:44:27;4.58;58.53
70826;SHT31;58446;41.490;22.098;2024-01-30T01:46:54;4.72;58.53
70826;SHT31;58446;41.490;22.098;2024-01-30T01:49:22;4.59;58.52
70826;SHT31;58446;41.490;22.098;2024-01-30T01:51:49;4.42;58.18
70826;SHT31;58446;41.490;22.098;2024-01-30T01:54:15;4.46;58.72
70826;SHT31;58446;41.490;22.098;2024-01-30T01:56:42;4.41;59.31
70826;SHT31;58446;41.490;22.098;2024-01-30T01:59:08;4.34;58.86
70826;SHT31;58446;41.490;22.098;2024-01-30T02:01:36;4.00;59.11
70826;SHT31;58446;41.490;22.098;2024-01-30T02:04:02;4.28;59.62
70826;SHT31;58446;41.490;22.098;2024-01-30T02:06:28;4.38;58.88
70826;SHT31;58446;41.490;22.098;2024-01-30T02:08:54;4.41;58.88
70826;SHT31;58446;41.490;22.098;2024-01-30T02:11:20;4.44;58.97
70826;SHT31;58446;41.490;22.098;2024-01-30T02:13:46;4.34;58.97
70826;SHT31;58446;41.490;22.098;2024-01-30T02:16:12;4.12;59.83
70826;SHT31;58446;41.490;22.098;2024-01-30T02:18:37;3.95;59.04
70826;SHT31;58446;41.490;22.098;2024-01-30T02:21:07;4.11;60.30
70826;SHT31;58446;41.490;22.098;2024-01-30T02:23:34;3.97;58.36
70826;SHT31;58446;41.490;22.098;2024-01-30T02:26:00;3.66;60.28
70826;SHT31;58446;41.490;22.098;2024-01-30T02:28:26;3.86;60.54
70826;SHT31;58446;41.490;22.098;2024-01-30T02:30:52;3.84;59.50
70826;SHT31;58446;41.490;22.098;2024-01-30T02:33:18;3.80;60.65
70826;SHT31;58446;41.490;22.098;2024-01-30T02:35:44;3.86;60.36
70826;SHT31;58446;41.490;22.098;2024-01-30T02:38:09;3.83;60.54
70826;SHT31;58446;41.490;22.098;2024-01-30T02:40:35;3.66;59.84
70826;SHT31;58446;41.490;22.098;2024-01-30T02:43:02;3.66;60.20
70826;SHT31;58446;41.490;22.098;2024-01-30T02:45:28;3.80;60.51
70826;SHT31;58446;41.490;22.098;2024-01-30T02:47:54;3.77;60.67
70826;SHT31;58446;41.490;22.098;2024-01-30T02:50:19;3.80;60.63
70826;SHT31;58446;41.490;22.098;2024-01-30T02:52:45;3.87;59.87
70826;SHT31;58446;41.490;22.098;2024-01-30T02:55:11;3.81;59.10
70826;SHT31;58446;41.490;22.098;2024-01-30T02:57:38;3.81;60.68
70826;SHT31;58446;41.490;22.098;2024-01-30T03:00:04;3.80;60.37
70826;SHT31;58446;41.490;22.098;2024-01-30T03:02:32;2.40;62.21
70826;SHT31;58446;41.490;22.098;2024-01-30T03:04:57;3.11;62.88
70826;SHT31;58446;41.490;22.098;2024-01-30T03:07:23;3.38;62.11
70826;SHT31;58446;41.490;22.098;2024-01-30T03:09:49;3.71;61.16
70826;SHT31;58446;41.490;22.098;2024-01-30T03:12:15;3.80;60.91
70826;SHT31;58446;41.490;22.098;2024-01-30T03:14:40;3.86;60.72
70826;SHT31;58446;41.490;22.098;2024-01-30T03:17:06;3.83;60.40
70826;SHT31;58446;41.490;22.098;2024-01-30T03:19:32;3.69;60.20
70826;SHT31;58446;41.490;22.098;2024-01-30T03:21:58;3.08;61.26
70826;SHT31;58446;41.490;22.098;2024-01-30T03:24:23;2.92;62.36
70826;SHT31;58446;41.490;22.098;2024-01-30T03:26:49;2.62;61.16
70826;SHT31;58446;41.490;22.098;2024-01-30T03:29:14;1.69;63.65
70826;SHT31;58446;41.490;22.098;2024-01-30T03:31:41;1.12;65.28
70826;SHT31;58446;41.490;22.098;2024-01-30T03:34:06;1.41;68.31
70826;SHT31;58446;41.490;22.098;2024-01-30T03:36:32;1.36;64.66
70826;SHT31;58446;41.490;22.098;2024-01-30T03:39:00;1.41;68.00
70826;SHT31;58446;41.490;22.098;2024-01-30T03:41:26;1.57;65.95
70826;SHT31;58446;41.490;22.098;2024-01-30T03:43:52;1.44;66.05
70826;SHT31;58446;41.490;22.098;2024-01-30T03:46:18;1.91;66.09
70826;SHT31;58446;41.490;22.098;2024-01-30T03:48:44;2.10;65.43
70826;SHT31;58446;41.490;22.098;2024-01-30T03:51:10;2.40;64.41
70826;SHT31;58446;41.490;22.098;2024-01-30T03:53:40;2.56;63.74
70826;SHT31;58446;41.490;22.098;2024-01-30T03:56:07;2.74;63.31
70826;SHT31;58446;41.490;22.098;2024-01-30T03:58:33;2.64;62.65
70826;SHT31;58446;41.490;22.098;2024-01-30T04:00:58;2.76;63.22
70826;SHT31;58446;41.490;22.098;2024-01-30T04:03:24;2.97;62.60
70826;SHT31;58446;41.490;22.098;2024-01-30T04:05:51;2.94;61.93
70826;SHT31;58446;41.490;22.098;2024-01-30T04:08:17;2.92;62.53
70826;SHT31;58446;41.490;22.098;2024-01-30T04:10:43;2.92;62.59
70826;SHT31;58446;41.490;22.098;2024-01-30T04:13:09;3.02;62.34
70826;SHT31;58446;41.490;22.098;2024-01-30T04:15:34;3.12;62.29
70826;SHT31;58446;41.490;22.098;2024-01-30T04:21:22;2.95;62.56
70826;SHT31;58446;41.490;22.098;2024-01-30T04:23:48;3.13;61.86
70826;SHT31;58446;41.490;22.098;2024-01-30T04:26:14;2.89;62.06
70826;SHT31;58446;41.490;22.098;2024-01-30T04:28:46;2.88;62.16
70826;SHT31;58446;41.490;22.098;2024-01-30T04:31:12;2.85;62.11
70826;SHT31;58446;41.490;22.098;2024-01-30T04:33:37;2.78;61.66
70826;SHT31;58446;41.490;22.098;2024-01-30T04:36:04;2.71;61.70
70826;SHT31;58446;41.490;22.098;2024-01-30T04:38:31;2.73;61.96
70826;SHT31;58446;41.490;22.098;2024-01-30T04:40:56;2.85;61.58
70826;SHT31;58446;41.490;22.098;2024-01-30T04:43:22;2.78;61.72
70826;SHT31;58446;41.490;22.098;2024-01-30T04:45:49;2.67;61.84
70826;SHT31;58446;41.490;22.098;2024-01-30T04:48:14;2.32;62.85
70826;SHT31;58446;41.490;22.098;2024-01-30T04:50:40;2.49;62.82
70826;SHT31;58446;41.490;22.098;2024-01-30T04:53:06;2.43;62.67
70826;SHT31;58446;41.490;22.098;2024-01-30T04:55:33;1.99;62.61
70826;SHT31;58446;41.490;22.098;2024-01-30T04:57:58;1.82;63.01
70826;SHT31;58446;41.490;22.098;2024-01-30T05:00:24;1.99;64.55
70826;SHT31;58446;41.490;22.098;2024-01-30T05:02:50;2.23;63.81
70826;SHT31;58446;41.490;22.098;2024-01-30T05:05:15;2.32;63.48
70826;SHT31;58446;41.490;22.098;2024-01-30T05:07:42;2.19;63.21
70826;SHT31;58446;41.490;22.098;2024-01-30T05:10:08;2.39;63.42
70826;SHT31;58446;41.490;22.098;2024-01-30T05:12:34;2.39;63.18
70826;SHT31;58446;41.490;22.098;2024-01-30T05:14:59;2.26;62.72
70826;SHT31;58446;41.490;22.098;2024-01-30T05:17:25;2.47;63.33
70826;SHT31;58446;41.490;22.098;2024-01-30T05:19:51;2.29;63.38
70826;SHT31;58446;41.490;22.098;2024-01-30T05:22:16;2.32;63.61
70826;SHT31;58446;41.490;22.098;2024-01-30T05:24:44;2.36;62.77
70826;SHT31;58446;41.490;22.098;2024-01-30T05:27:10;1.74;62.96
70826;SHT31;58446;41.490;22.098;2024-01-30T05:29:38;1.55;64.79
70826;SHT31;58446;41.490;22.098;2024-01-30T05:32:04;1.81;65.25
70826;SHT31;58446;41.490;22.098;2024-01-30T05:34:31;1.99;64.45
70826;SHT31;58446;41.490;22.098;2024-01-30T05:36:56;2.03;63.99
70826;SHT31;58446;41.490;22.098;2024-01-30T05:39:22;1.92;64.25
70826;SHT31;58446;41.490;22.098;2024-01-30T05:41:48;2.01;64.10
70826;SHT31;58446;41.490;22.098;2024-01-30T05:44:14;1.94;64.17
70826;SHT31;58446;41.490;22.098;2024-01-30T05:46:39;2.01;63.90
70826;SHT31;58446;41.490;22.098;2024-01-30T05:49:05;1.96;64.31
70826;SHT31;58446;41.490;22.098;2024-01-30T05:51:31;2.06;64.13
70826;SHT31;58446;41.490;22.098;2024-01-30T05:53:57;2.16;63.46
70826;SHT31;58446;41.490;22.098;2024-01-30T05:56:22;2.23;63.45
70826;SHT31;58446;41.490;22.098;2024-01-30T05:58:48;2.19;63.38
70826;SHT31;58446;41.490;22.098;2024-01-30T06:01:16;2.16;63.29
70826;SHT31;58446;41.490;22.098;2024-01-30T06:03:41;2.27;63.05
70826;SHT31;58446;41.490;22.098;2024-01-30T06:06:08;2.16;62.65
70826;SHT31;58446;41.490;22.098;2024-01-30T06:08:34;2.29;62.57
70826;SHT31;58446;41.490;22.098;2024-01-30T06:11:00;2.27;62.72
70826;SHT31;58446;41.490;22.098;2024-01-30T06:13:26;2.27;62.43
70826;SHT31;58446;41.490;22.098;2024-01-30T06:15:52;2.30;62.66
70826;SHT31;58446;41.490;22.098;2024-01-30T06:18:18;2.09;63.01
70826;SHT31;58446;41.490;22.098;2024-01-30T06:20:43;2.10;63.07
70826;SHT31;58446;41.490;22.098;2024-01-30T06:23:09;2.12;63.08
70826;SHT31;58446;41.490;22.098;2024-01-30T06:25:35;2.09;62.93
70826;SHT31;58446;41.490;22.098;2024-01-30T06:28:01;1.65;61.64
70826;SHT31;58446;41.490;22.098;2024-01-30T06:30:26;1.64;63.37
70826;SHT31;58446;41.490;22.098;2024-01-30T06:32:52;1.83;63.77
70826;SHT31;58446;41.490;22.098;2024-01-30T06:35:18;1.99;63.75
70826;SHT31;58446;41.490;22.098;2024-01-30T06:37:43;3.02;61.02
70826;SHT31;58446;41.490;22.098;2024-01-30T06:40:09;4.58;56.11
70826;SHT31;58446;41.490;22.098;2024-01-30T06:42:35;5.20;54.01
70826;SHT31;58446;41.490;22.098;2024-01-30T06:45:01;5.24;52.07
70826;SHT31;58446;41.490;22.098;2024-01-30T06:47:26;5.42;52.20
70826;SHT31;58446;41.490;22.098;2024-01-30T06:49:54;5.89;51.58
70826;SHT31;58446;41.490;22.098;2024-01-30T06:52:19;5.81;51.50
70826;SHT31;58446;41.490;22.098;2024-01-30T06:54:45;5.61;51.79
70826;SHT31;58446;41.490;22.098;2024-01-30T06:57:10;5.54;52.04
70826;SHT31;58446;41.490;22.098;2024-01-30T06:59:37;5.26;52.07
70826;SHT31;58446;41.490;22.098;2024-01-30T07:02:11;5.06;51.95
70826;SHT31;58446;41.490;22.098;2024-01-30T07:04:37;4.70;52.93
70826;SHT31;58446;41.490;22.098;2024-01-30T07:07:04;4.75;52.98
70826;SHT31;58446;41.490;22.098;2024-01-30T07:09:31;4.52;53.60
70826;SHT31;58446;41.490;22.098;2024-01-30T07:11:57;4.15;54.56
70826;SHT31;58446;41.490;22.098;2024-01-30T07:14:24;4.10;54.85
70826;SHT31;58446;41.490;22.098;2024-01-30T07:16:49;4.00;54.63
70826;SHT31;58446;41.490;22.098;2024-01-30T07:19:16;4.29;54.17
70826;SHT31;58446;41.490;22.098;2024-01-30T07:21:43;4.42;54.53
70826;SHT31;58446;41.490;22.098;2024-01-30T07:24:09;4.68;54.13
70826;SHT31;58446;41.490;22.098;2024-01-30T07:26:34;4.52;54.08
70826;SHT31;58446;41.490;22.098;2024-01-30T07:29:01;4.90;54.09
70826;SHT31;58446;41.490;22.098;2024-01-30T07:31:27;4.99;53.59
70826;SHT31;58446;41.490;22.098;2024-01-30T07:33:52;5.07;53.19
70826;SHT31;58446;41.490;22.098;2024-01-30T07:36:20;5.47;52.07
70826;SHT31;58446;41.490;22.098;2024-01-30T07:38:45;5.41;52.93
70826;SHT31;58446;41.490;22.098;2024-01-30T07:41:11;5.54;53.08
70826;SHT31;58446;41.490;22.098;2024-01-30T07:43:38;5.73;52.84
70826;SHT31;58446;41.490;22.098;2024-01-30T07:46:04;5.85;52.49
70826;SHT31;58446;41.490;22.098;2024-01-30T07:48:34;5.91;51.67
70826;SHT31;58446;41.490;22.098;2024-01-30T07:51:00;6.16;51.28
70826;SHT31;58446;41.490;22.098;2024-01-30T07:53:25;6.32;50.84
70826;SHT31;58446;41.490;22.098;2024-01-30T07:55:52;6.41;50.14
70826;SHT31;58446;41.490;22.098;2024-01-30T07:58:17;6.45;50.53
70826;SHT31;58446;41.490;22.098;2024-01-30T08:00:44;6.64;50.52
70826;SHT31;58446;41.490;22.098;2024-01-30T08:03:10;7.03;50.30
70826;SHT31;58446;41.490;22.098;2024-01-30T08:05:36;7.53;49.68
70826;SHT31;58446;41.490;22.098;2024-01-30T08:08:01;7.46;48.57
70826;SHT31;58446;41.490;22.098;2024-01-30T08:10:29;7.57;48.86
70826;SHT31;58446;41.490;22.098;2024-01-30T08:12:54;7.67;48.49
70826;SHT31;58446;41.490;22.098;2024-01-30T08:15:20;7.95;48.46
70826;SHT31;58446;41.490;22.098;2024-01-30T08:17:45;7.85;48.42
70826;SHT31;58446;41.490;22.098;2024-01-30T08:20:11;7.93;48.16
70826;SHT31;58446;41.490;22.098;2024-01-30T08:22:40;7.93;49.11
70826;SHT31;58446;41.490;22.098;2024-01-30T08:25:06;8.39;47.47
70826;SHT31;58446;41.490;22.098;2024-01-30T08:27:33;8.77;46.08
70826;SHT31;58446;41.490;22.098;2024-01-30T08:30:01;8.53;46.13
70826;SHT31;58446;41.490;22.098;2024-01-30T08:32:27;8.63;45.61
70826;SHT31;58446;41.490;22.098;2024-01-30T08:34:52;8.67;44.80
70826;SHT31;58446;41.490;22.098;2024-01-30T08:37:18;8.57;44.52
70826;SHT31;58446;41.490;22.098;2024-01-30T08:39:44;8.90;43.90
70826;SHT31;58446;41.490;22.098;2024-01-30T08:42:09;8.91;45.32
70826;SHT31;58446;41.490;22.098;2024-01-30T08:44:35;8.99;44.11
70826;SHT31;58446;41.490;22.098;2024-01-30T08:47:01;8.93;44.47
70826;SHT31;58446;41.490;22.098;2024-01-30T08:49:26;9.17;43.33
70826;SHT31;58446;41.490;22.098;2024-01-30T08:51:52;9.18;41.89
70826;SHT31;58446;41.490;22.098;2024-01-30T08:54:18;9.07;40.83
70826;SHT31;58446;41.490;22.098;2024-01-30T08:56:44;9.20;41.63
70826;SHT31;58446;41.490;22.098;2024-01-30T08:59:09;8.96;44.55
70826;SHT31;58446;41.490;22.098;2024-01-30T09:01:35;9.04;42.17
70826;SHT31;58446;41.490;22.098;2024-01-30T09:04:01;9.27;41.99
70826;SHT31;58446;41.490;22.098;2024-01-30T09:06:27;9.21;42.61
70826;SHT31;58446;41.490;22.098;2024-01-30T09:08:54;9.46;41.40
70826;SHT31;58446;41.490;22.098;2024-01-30T09:11:20;9.52;41.52
70826;SHT31;58446;41.490;22.098;2024-01-30T09:13:46;9.44;40.92
70826;SHT31;58446;41.490;22.098;2024-01-30T09:16:11;9.27;41.16
70826;SHT31;58446;41.490;22.098;2024-01-30T09:18:37;9.34;41.24
70826;SHT31;58446;41.490;22.098;2024-01-30T09:21:03;9.49;40.07
70826;SHT31;58446;41.490;22.098;2024-01-30T09:23:28;9.41;39.38
70826;SHT31;58446;41.490;22.098;2024-01-30T09:25:54;9.39;41.35
70826;SHT31;58446;41.490;22.098;2024-01-30T09:28:20;9.17;40.11
70826;SHT31;58446;41.490;22.098;2024-01-30T09:30:46;9.28;42.41
70826;SHT31;58446;41.490;22.098;2024-01-30T09:33:12;9.35;39.40
70826;SHT31;58446;41.490;22.098;2024-01-30T09:35:37;9.34;39.58
70826;SHT31;58446;41.490;22.098;2024-01-30T09:38:03;9.61;39.87
70826;SHT31;58446;41.490;22.098;2024-01-30T09:40:29;9.72;39.00
70826;SHT31;58446;41.490;22.098;2024-01-30T09:42:55;9.69;39.10
70826;SHT31;58446;41.490;22.098;2024-01-30T09:45:25;9.69;40.49
70826;SHT31;58446;41.490;22.098;2024-01-30T09:47:52;9.62;40.44
70826;SHT31;58446;41.490;22.098;2024-01-30T09:50:18;9.06;41.61
70826;SHT31;58446;41.490;22.098;2024-01-30T09:52:46;9.03;42.07
70826;SHT31;58446;41.490;22.098;2024-01-30T09:55:12;9.06;42.12
70826;SHT31;58446;41.490;22.098;2024-01-30T09:57:38;8.35;42.07
70826;SHT31;58446;41.490;22.098;2024-01-30T10:00:05;8.48;41.66
70826;SHT31;58446;41.490;22.098;2024-01-30T10:02:35;8.81;40.15
70826;SHT31;58446;41.490;22.098;2024-01-30T10:05:01;8.88;42.05
70826;SHT31;58446;41.490;22.098;2024-01-30T10:07:26;8.73;39.85
70826;SHT31;58446;41.490;22.098;2024-01-30T10:09:53;8.45;41.83
70826;SHT31;58446;41.490;22.098;2024-01-30T10:12:20;8.15;41.98
70826;SHT31;58446;41.490;22.098;2024-01-30T10:14:47;8.20;42.88
70826;SHT31;58446;41.490;22.098;2024-01-30T10:17:13;8.29;42.54
70826;SHT31;58446;41.490;22.098;2024-01-30T10:19:41;7.99;42.82
70826;SHT31;58446;41.490;22.098;2024-01-30T10:22:07;8.08;42.78
70826;SHT31;58446;41.490;22.098;2024-01-30T10:24:33;8.34;42.26
70826;SHT31;58446;41.490;22.098;2024-01-30T10:26:59;8.08;42.74
70826;SHT31;58446;41.490;22.098;2024-01-30T10:29:26;8.24;41.78
70826;SHT31;58446;41.490;22.098;2024-01-30T10:32:02;7.98;43.01
70826;SHT31;58446;41.490;22.098;2024-01-30T10:34:28;8.36;42.33
70826;SHT31;58446;41.490;22.098;2024-01-30T10:37:06;8.57;41.03
70826;SHT31;58446;41.490;22.098;2024-01-30T10:39:37;8.86;41.06
70826;SHT31;58446;41.490;22.098;2024-01-30T10:42:04;8.53;41.69
70826;SHT31;58446;41.490;22.098;2024-01-30T10:44:37;8.14;41.87
70826;SHT31;58446;41.490;22.098;2024-01-30T10:47:07;7.83;42.39
70826;SHT31;58446;41.490;22.098;2024-01-30T10:49:36;8.18;42.33
70826;SHT31;58446;41.490;22.098;2024-01-30T10:52:03;8.42;42.45
70826;SHT31;58446;41.490;22.098;2024-01-30T10:54:31;8.56;40.58
70826;SHT31;58446;41.490;22.098;2024-01-30T10:57:00;8.73;41.61
70826;SHT31;58446;41.490;22.098;2024-01-30T10:59:29;8.77;40.95
70826;SHT31;58446;41.490;22.098;2024-01-30T11:01:57;8.96;41.64
70826;SHT31;58446;41.490;22.098;2024-01-30T11:04:24;8.76;41.40
70826;SHT31;58446;41.490;22.098;2024-01-30T11:06:50;8.99;40.89
70826;SHT31;58446;41.490;22.098;2024-01-30T11:09:17;9.03;40.70
70826;SHT31;58446;41.490;22.098;2024-01-30T11:11:57;8.52;41.06
70826;SHT31;58446;41.490;22.098;2024-01-30T11:14:27;8.76;42.05
70826;SHT31;58446;41.490;22.098;2024-01-30T11:16:57;9.08;40.74
70826;SHT31;58446;41.490;22.098;2024-01-30T11:19:24;9.34;39.01
70826;SHT31;58446;41.490;22.098;2024-01-30T11:21:52;9.45;39.05
70826;SHT31;58446;41.490;22.098;2024-01-30T11:24:23;9.49;39.43
70826;SHT31;58446;41.490;22.098;2024-01-30T11:26:58;9.65;38.41
70826;SHT31;58446;41.490;22.098;2024-01-30T11:29:28;9.74;38.89
70826;SHT31;58446;41.490;22.098;2024-01-30T11:31:57;9.86;38.73
70826;SHT31;58446;41.490;22.098;2024-01-30T11:34:24;9.25;39.99
70826;SHT31;58446;41.490;22.098;2024-01-30T11:36:55;9.23;38.85
70826;SHT31;58446;41.490;22.098;2024-01-30T11:39:27;9.46;38.84
70826;SHT31;58446;41.490;22.098;2024-01-30T11:41:54;9.51;38.54
70826;SHT31;58446;41.490;22.098;2024-01-30T11:44:20;9.45;39.39
70826;SHT31;58446;41.490;22.098;2024-01-30T11:46:50;8.84;39.48
70826;SHT31;58446;41.490;22.098;2024-01-30T11:49:16;8.69;39.58
70826;SHT31;58446;41.490;22.098;2024-01-30T11:51:45;8.94;39.77
70826;SHT31;58446;41.490;22.098;2024-01-30T11:54:14;8.73;39.51
70826;SHT31;58446;41.490;22.098;2024-01-30T11:56:40;8.65;40.15
70826;SHT31;58446;41.490;22.098;2024-01-30T11:59:05;8.55;40.06
70826;SHT31;58446;41.490;22.098;2024-01-30T12:01:31;8.63;40.37
70826;SHT31;58446;41.490;22.098;2024-01-30T12:04:01;8.67;39.92
70826;SHT31;58446;41.490;22.098;2024-01-30T12:06:27;8.53;39.99
70826;SHT31;58446;41.490;22.098;2024-01-30T12:08:59;8.70;39.74
70826;SHT31;58446;41.490;22.098;2024-01-30T12:11:25;9.07;39.44
70826;SHT31;58446;41.490;22.098;2024-01-30T12:13:52;9.38;39.34
70826;SHT31;58446;41.490;22.098;2024-01-30T12:16:19;9.54;39.06
70826;SHT31;58446;41.490;22.098;2024-01-30T12:18:44;9.75;38.75
70826;SHT31;58446;41.490;22.098;2024-01-30T12:21:10;9.89;38.29
70826;SHT31;58446;41.490;22.098;2024-01-30T12:23:36;9.83;38.74
70826;SHT31;58446;41.490;22.098;2024-01-30T12:26:03;9.83;38.22
70826;SHT31;58446;41.490;22.098;2024-01-30T12:28:33;9.66;38.90
70826;SHT31;58446;41.490;22.098;2024-01-30T12:31:03;9.78;38.56
70826;SHT31;58446;41.490;22.098;2024-01-30T12:33:29;9.81;37.87
70826;SHT31;58446;41.490;22.098;2024-01-30T12:36:01;9.85;38.69
70826;SHT31;58446;41.490;22.098;2024-01-30T12:38:28;9.86;37.51
70826;SHT31;58446;41.490;22.098;2024-01-30T12:40:56;9.35;38.81
70826;SHT31;58446;41.490;22.098;2024-01-30T12:43:26;9.48;38.99
70826;SHT31;58446;41.490;22.098;2024-01-30T12:45:53;9.54;38.54
70826;SHT31;58446;41.490;22.098;2024-01-30T12:48:19;9.46;38.55
70826;SHT31;58446;41.490;22.098;2024-01-30T12:50:45;9.58;38.85
70826;SHT31;58446;41.490;22.098;2024-01-30T12:53:14;9.58;38.28
70826;SHT31;58446;41.490;22.098;2024-01-30T12:55:44;9.76;39.15
70826;SHT31;58446;41.490;22.098;2024-01-30T12:58:12;9.85;37.95
70826;SHT31;58446;41.490;22.098;2024-01-30T13:00:37;9.66;38.14
70826;SHT31;58446;41.490;22.098;2024-01-30T13:03:03;9.11;38.52
70826;SHT31;58446;41.490;22.098;2024-01-30T13:05:29;8.99;38.89
70826;SHT31;58446;41.490;22.098;2024-01-30T13:07:55;8.87;38.85
70826;SHT31;58446;41.490;22.098;2024-01-30T13:10:22;8.88;38.59
70826;SHT31;58446;41.490;22.098;2024-01-30T13:12:48;9.03;39.10
70826;SHT31;58446;41.490;22.098;2024-01-30T13:15:14;9.32;38.90
70826;SHT31;58446;41.490;22.098;2024-01-30T13:17:40;9.55;38.50
70826;SHT31;58446;41.490;22.098;2024-01-30T13:20:08;9.76;37.94
70826;SHT31;58446;41.490;22.098;2024-01-30T13:22:34;9.79;38.50
70826;SHT31;58446;41.490;22.098;2024-01-30T13:24:59;9.85;38.26
70826;SHT31;58446;41.490;22.098;2024-01-30T13:27:26;9.92;37.66
70826;SHT31;58446;41.490;22.098;2024-01-30T13:29:52;9.89;37.81
70826;SHT31;58446;41.490;22.098;2024-01-30T13:32:18;9.81;37.95
70826;SHT31;58446;41.490;22.098;2024-01-30T13:34:44;9.44;38.46
70826;SHT31;58446;41.490;22.098;2024-01-30T13:37:10;9.61;37.95
70826;SHT31;58446;41.490;22.098;2024-01-30T13:39:40;9.61;38.01
70826;SHT31;58446;41.490;22.098;2024-01-30T13:42:06;9.74;37.88
70826;SHT31;58446;41.490;22.098;2024-01-30T13:44:32;9.85;37.67
70826;SHT31;58446;41.490;22.098;2024-01-30T13:47:06;9.95;37.84
70826;SHT31;58446;41.490;22.098;2024-01-30T13:49:32;9.86;37.98
70826;SHT31;58446;41.490;22.098;2024-01-30T13:51:59;9.86;38.41
70826;SHT31;58446;41.490;22.098;2024-01-30T13:54:27;9.90;38.09
70826;SHT31;58446;41.490;22.098;2024-01-30T13:56:53;9.99;37.79
70826;SHT31;58446;41.490;22.098;2024-01-30T13:59:19;9.72;38.28
70826;SHT31;58446;41.490;22.098;2024-01-30T14:01:49;9.75;38.49
70826;SHT31;58446;41.490;22.098;2024-01-30T14:04:15;9.75;38.15
70826;SHT31;58446;41.490;22.098;2024-01-30T14:06:41;9.74;38.30
70826;SHT31;58446;41.490;22.098;2024-01-30T14:09:06;9.81;38.15
70826;SHT31;58446;41.490;22.098;2024-01-30T14:11:33;9.81;38.20
70826;SHT31;58446;41.490;22.098;2024-01-30T14:13:59;9.59;38.68
70826;SHT31;58446;41.490;22.098;2024-01-30T14:16:24;9.69;38.11
70826;SHT31;58446;41.490;22.098;2024-01-30T14:18:50;9.45;38.64
70826;SHT31;58446;41.490;22.098;2024-01-30T14:21:16;9.55;38.54
70826;SHT31;58446;41.490;22.098;2024-01-30T14:23:42;9.74;38.19
70826;SHT31;58446;41.490;22.098;2024-01-30T14:26:07;9.82;37.59
70826;SHT31;58446;41.490;22.098;2024-01-30T14:28:33;9.81;38.08
70826;SHT31;58446;41.490;22.098;2024-01-30T14:30:59;9.44;38.52
70826;SHT31;58446;41.490;22.098;2024-01-30T14:33:24;9.28;38.41
70826;SHT31;58446;41.490;22.098;2024-01-30T14:35:51;9.17;38.57
70826;SHT31;58446;41.490;22.098;2024-01-30T14:38:17;9.15;38.64
70826;SHT31;58446;41.490;22.098;2024-01-30T14:40:42;9.23;38.92
70826;SHT31;58446;41.490;22.098;2024-01-30T14:43:08;9.17;38.83
70826;SHT31;58446;41.490;22.098;2024-01-30T14:45:34;8.96;38.97
70826;SHT31;58446;41.490;22.098;2024-01-30T14:48:00;8.93;39.01
70826;SHT31;58446;41.490;22.098;2024-01-30T14:50:26;8.80;39.15
70826;SHT31;58446;41.490;22.098;2024-01-30T14:52:53;8.87;39.10
70826;SHT31;58446;41.490;22.098;2024-01-30T14:55:19;8.91;39.22
70826;SHT31;58446;41.490;22.098;2024-01-30T14:57:45;8.83;39.34
70826;SHT31;58446;41.490;22.098;2024-01-30T15:00:12;8.84;39.74
70826;SHT31;58446;41.490;22.098;2024-01-30T15:02:38;8.91;39.97
70826;SHT31;58446;41.490;22.098;2024-01-30T15:05:04;8.87;39.99
70826;SHT31;58446;41.490;22.098;2024-01-30T15:07:30;8.84;40.02
70826;SHT31;58446;41.490;22.098;2024-01-30T15:09:55;8.69;40.98
70826;SHT31;58446;41.490;22.098;2024-01-30T15:12:21;8.70;40.31
70826;SHT31;58446;41.490;22.098;2024-01-30T15:14:47;8.73;40.46
70826;SHT31;58446;41.490;22.098;2024-01-30T15:17:19;8.77;40.92
70826;SHT31;58446;41.490;22.098;2024-01-30T15:19:47;8.75;40.81
70826;SHT31;58446;41.490;22.098;2024-01-30T15:22:13;8.72;40.69
70826;SHT31;58446;41.490;22.098;2024-01-30T15:24:39;8.72;41.93
70826;SHT31;58446;41.490;22.098;2024-01-30T15:27:05;8.69;41.44
70826;SHT31;58446;41.490;22.098;2024-01-30T15:29:31;8.60;41.85